Mississippi State, Mississippi
Current Conditions -  °F | °C
As of 10:35 AM on Wednesday 26 Nov 2014 (Local Time) from KSTF Reporting Station
Clear Clear  
Wind Chill: 50°   Ceiling: Unl
Heat Index: 50°   Visibility: NA
Dew Point: 30°   Wind: 6mph
Humidity: 47%   Direction: 170°S
Pressure: 30.19"   Gusts: NA
Location:  33.45°N, 88.79°W
Report Text: KSTF 261635Z AUTO 17005KT CLR 10/M01 A3019 RMK AO2 PWINO
Loading
Personal Weather Stations






























Interactive Weather Map New forecast layout! Learn more

10-Day Weather Forecast

Advertisements
Track Severe Weather on mobile